Madrid-Barajas Airport

Airport
ICAO code: 
LEMD
IATA Code: 
MAD
Summary
ICAO Region: 
EUR
Territory: 
Location: 
Barajas, Madrid, Comunidad de Madrid
Serving: 
Madrid
Elevation: 
2000 ft
Coordinates: 
Aerial View: 
40° 29' 37.619" N, 3° 34' 2.468" W
Airport LOS: 
Parallel Runway Operation
Airport RE: 
Engineered Materials Arresting System
Metar
Observation
LEMD 180600Z VRB02KT CAVOK M04/M06 Q1030 NOSIG
Station
Madrid / Barajas
Date/Time
2022-01-18 06:00:00
Wind speed
02 kts
Lowest cloud amount
clouds and visibility OK
Temperature
-4°C
Dew point
-6°C
Humidity
85%
QNH
1030 hPa
Weather condition
n/a

Spain's principal international airport which serves the whole of central Spain.

Climatology

"Continental" Mediterranean climate - a variation fo the Mediterranean Climate with characteristics of a continental climate due to altitude and limited influence of the sea (Köppen climate classification Csa) - cool winters due to altitude, including sporadic snowfalls and minimum temperatures often below freezing. Summer tends to be hot and dry with significant diurnal temperature range.

Runways

Designator Length Width Surface Rops
14L/32R 3500 60 ASP Yes/Yes
18L/36R 3500 60 ASP Yes/Yes
14R/32L 4100 60 ASP Yes/Yes
18R/36L 4350 60 ASP Yes/Yes

SKYbrary Partners:

Safety knowledge contributed by: